NKS725 KLAS-KLAX
Flight info
| Callsign | NKS725 |
|---|---|
| Flight time | N/A |
| Altitude | 28000 |
| Route | RADYR2 BLAQQ SHTNR ANJLL4 |
| Aircraft | A320/M-SDE3FGHIRWY/LB1 |
Departure
| Time | 2026-05-03 22:45 |
|---|---|
| Airport | Harry Reid International Airport (KLAS) |
Arrival
| Time | N/A |
|---|---|
| Airport | Los Angeles International Airport (KLAX) |
| Time | Latitude | Longitude | Altitude | Speed | Heading |
|---|---|---|---|---|---|
| 2026-05-03 22:18 | 36.08495 | -115.15397 | 2117 ft | 0 kts | 334° |
| 2026-05-03 22:32 | 36.08498 | -115.15399 | 2116 ft | 3 kts | 334° |
| 2026-05-03 22:33 | 36.08522 | -115.15413 | 2118 ft | 4 kts | 334° |
| 2026-05-03 22:33 | 36.08547 | -115.15428 | 2116 ft | 4 kts | 334° |
| 2026-05-03 22:33 | 36.08571 | -115.15442 | 2116 ft | 4 kts | 334° |
| 2026-05-03 22:33 | 36.08576 | -115.15445 | 2116 ft | 0 kts | 334° |
| 2026-05-03 22:36 | 36.08592 | -115.15454 | 2116 ft | 4 kts | 334° |
| 2026-05-03 22:37 | 36.08626 | -115.15493 | 2113 ft | 9 kts | 292° |
| 2026-05-03 22:37 | 36.08609 | -115.15571 | 2114 ft | 10 kts | 224° |
| 2026-05-03 22:37 | 36.08554 | -115.15607 | 2118 ft | 8 kts | 206° |
| 2026-05-03 22:37 | 36.08510 | -115.15643 | 2120 ft | 7 kts | 228° |
| 2026-05-03 22:38 | 36.08473 | -115.15665 | 2123 ft | 6 kts | 186° |
| 2026-05-03 22:38 | 36.08429 | -115.15649 | 2124 ft | 8 kts | 154° |
| 2026-05-03 22:38 | 36.08369 | -115.15612 | 2125 ft | 12 kts | 154° |
| 2026-05-03 22:38 | 36.08285 | -115.15563 | 2126 ft | 15 kts | 155° |
| 2026-05-03 22:39 | 36.08185 | -115.15506 | 2129 ft | 16 kts | 155° |
| 2026-05-03 22:39 | 36.08078 | -115.15444 | 2133 ft | 18 kts | 155° |
| 2026-05-03 22:39 | 36.07959 | -115.15377 | 2136 ft | 19 kts | 156° |
| 2026-05-03 22:39 | 36.07841 | -115.15308 | 2136 ft | 18 kts | 147° |
| 2026-05-03 22:40 | 36.07806 | -115.15154 | 2131 ft | 22 kts | 89° |
| 2026-05-03 22:40 | 36.07793 | -115.14951 | 2128 ft | 23 kts | 95° |
| 2026-05-03 22:40 | 36.07780 | -115.14751 | 2115 ft | 27 kts | 96° |
| 2026-05-03 22:40 | 36.07761 | -115.14503 | 2107 ft | 30 kts | 94° |
| 2026-05-03 22:41 | 36.07753 | -115.14279 | 2100 ft | 28 kts | 90° |
| 2026-05-03 22:41 | 36.07752 | -115.14033 | 2095 ft | 25 kts | 90° |
| 2026-05-03 22:41 | 36.07752 | -115.13839 | 2092 ft | 20 kts | 90° |
| 2026-05-03 22:41 | 36.07749 | -115.13640 | 2086 ft | 25 kts | 91° |
| 2026-05-03 22:42 | 36.07742 | -115.13419 | 2082 ft | 24 kts | 91° |
| 2026-05-03 22:42 | 36.07747 | -115.13203 | 2073 ft | 26 kts | 89° |
| 2026-05-03 22:42 | 36.07752 | -115.12992 | 2065 ft | 23 kts | 89° |
| 2026-05-03 22:42 | 36.07753 | -115.12814 | 2058 ft | 23 kts | 90° |
| 2026-05-03 22:43 | 36.07752 | -115.12594 | 2049 ft | 27 kts | 90° |
| 2026-05-03 22:43 | 36.07752 | -115.12370 | 2045 ft | 22 kts | 89° |
| 2026-05-03 22:43 | 36.07722 | -115.12236 | 2042 ft | 14 kts | 149° |
| 2026-05-03 22:43 | 36.07645 | -115.12258 | 2044 ft | 10 kts | 232° |
| 2026-05-03 22:44 | 36.07639 | -115.12340 | 2047 ft | 11 kts | 270° |
| 2026-05-03 22:44 | 36.07639 | -115.12618 | 2055 ft | 62 kts | 270° |
| 2026-05-03 22:44 | 36.07638 | -115.13400 | 2075 ft | 117 kts | 270° |
| 2026-05-03 22:44 | 36.07639 | -115.14594 | 2113 ft | 158 kts | 270° |
| 2026-05-03 22:45 | 36.07655 | -115.16004 | 2563 ft | 163 kts | 263° |
| 2026-05-03 22:45 | 36.07689 | -115.17396 | 3233 ft | 162 kts | 264° |
| 2026-05-03 22:45 | 36.07682 | -115.18820 | 3537 ft | 181 kts | 262° |
| 2026-05-03 22:45 | 36.07651 | -115.20477 | 3861 ft | 204 kts | 261° |
| 2026-05-03 22:46 | 36.07411 | -115.22275 | 4109 ft | 221 kts | 254° |
| 2026-05-03 22:46 | 36.07058 | -115.24193 | 4356 ft | 235 kts | 240° |
| 2026-05-03 22:46 | 36.06153 | -115.25847 | 4978 ft | 234 kts | 219° |
| 2026-05-03 22:46 | 36.04725 | -115.26917 | 5418 ft | 249 kts | 199° |
| 2026-05-03 22:47 | 36.03074 | -115.27669 | 6109 ft | 255 kts | 199° |
| 2026-05-03 22:47 | 36.01398 | -115.28426 | 6964 ft | 258 kts | 199° |
| 2026-05-03 22:47 | 35.99813 | -115.29138 | 7725 ft | 261 kts | 198° |
| 2026-05-03 22:47 | 35.98040 | -115.29692 | 8457 ft | 267 kts | 191° |
| 2026-05-03 22:48 | 35.96239 | -115.30123 | 9343 ft | 267 kts | 191° |
| 2026-05-03 22:48 | 35.95006 | -115.30424 | 9904 ft | 270 kts | 191° |
| 2026-05-03 22:48 | 35.92919 | -115.30934 | 10693 ft | 274 kts | 191° |
| 2026-05-03 22:48 | 35.91046 | -115.31394 | 11444 ft | 275 kts | 191° |
| 2026-05-03 22:49 | 35.89157 | -115.31859 | 12219 ft | 278 kts | 191° |
| 2026-05-03 22:49 | 35.87244 | -115.32332 | 12934 ft | 282 kts | 191° |
| 2026-05-03 22:49 | 35.85405 | -115.32786 | 13610 ft | 287 kts | 192° |
| 2026-05-03 22:49 | 35.83366 | -115.33291 | 13781 ft | 310 kts | 191° |
| 2026-05-03 22:50 | 35.81183 | -115.33832 | 13985 ft | 327 kts | 191° |
| 2026-05-03 22:50 | 35.78917 | -115.34388 | 14461 ft | 335 kts | 191° |
| 2026-05-03 22:50 | 35.76620 | -115.34952 | 15012 ft | 339 kts | 192° |
| 2026-05-03 22:50 | 35.74297 | -115.35519 | 15618 ft | 342 kts | 192° |
| 2026-05-03 22:51 | 35.71948 | -115.36091 | 16199 ft | 346 kts | 192° |
| 2026-05-03 22:51 | 35.70017 | -115.36553 | 16648 ft | 349 kts | 192° |
| 2026-05-03 22:51 | 35.67629 | -115.37131 | 17231 ft | 352 kts | 192° |
| 2026-05-03 22:52 | 35.65216 | -115.37722 | 17836 ft | 354 kts | 193° |
| 2026-05-03 22:52 | 35.62813 | -115.38313 | 18348 ft | 358 kts | 193° |
| 2026-05-03 22:52 | 35.60332 | -115.38701 | 18892 ft | 363 kts | 184° |
| 2026-05-03 22:52 | 35.58616 | -115.38638 | 19257 ft | 366 kts | 180° |
| 2026-05-03 22:53 | 35.57839 | -115.38564 | 19444 ft | 367 kts | 178° |
| 2026-05-03 22:53 | 35.55284 | -115.38310 | 19985 ft | 369 kts | 180° |
| 2026-05-03 22:53 | 35.52721 | -115.38112 | 20529 ft | 370 kts | 181° |
| 2026-05-03 22:53 | 35.50144 | -115.37941 | 21055 ft | 372 kts | 182° |
| 2026-05-03 22:54 | 35.47556 | -115.37784 | 21585 ft | 373 kts | 184° |
| 2026-05-03 22:54 | 35.44990 | -115.37964 | 22094 ft | 367 kts | 195° |
| 2026-05-03 22:54 | 35.42572 | -115.38736 | 22597 ft | 362 kts | 205° |
| 2026-05-03 22:54 | 35.40299 | -115.40037 | 23131 ft | 359 kts | 212° |
| 2026-05-03 22:55 | 35.38083 | -115.41459 | 23626 ft | 359 kts | 213° |
| 2026-05-03 22:55 | 35.35868 | -115.42876 | 24064 ft | 359 kts | 213° |
| 2026-05-03 22:55 | 35.33647 | -115.44296 | 24461 ft | 361 kts | 213° |
| 2026-05-03 22:55 | 35.31407 | -115.45725 | 24846 ft | 363 kts | 213° |
| 2026-05-03 22:56 | 35.29161 | -115.47156 | 25226 ft | 365 kts | 213° |
| 2026-05-03 22:56 | 35.26903 | -115.48595 | 25602 ft | 367 kts | 214° |
| 2026-05-03 22:56 | 35.24629 | -115.50043 | 25992 ft | 369 kts | 214° |
| 2026-05-03 22:56 | 35.22473 | -115.51417 | 26347 ft | 371 kts | 214° |
| 2026-05-03 22:57 | 35.20211 | -115.52858 | 26708 ft | 373 kts | 214° |
| 2026-05-03 22:57 | 35.17899 | -115.54330 | 27078 ft | 375 kts | 214° |
| 2026-05-03 22:57 | 35.15581 | -115.55806 | 27465 ft | 377 kts | 214° |
| 2026-05-03 22:57 | 35.13304 | -115.57388 | 27758 ft | 374 kts | 220° |
| 2026-05-03 22:58 | 35.11307 | -115.59328 | 27803 ft | 361 kts | 229° |
| 2026-05-03 22:58 | 35.09566 | -115.61502 | 27816 ft | 356 kts | 231° |
| 2026-05-03 22:58 | 35.07850 | -115.63680 | 27820 ft | 355 kts | 231° |
| 2026-05-03 22:58 | 35.06146 | -115.65857 | 27805 ft | 354 kts | 231° |
| 2026-05-03 22:59 | 35.04449 | -115.68031 | 27803 ft | 353 kts | 231° |
| 2026-05-03 22:59 | 35.02776 | -115.70174 | 27802 ft | 353 kts | 231° |
| 2026-05-03 22:59 | 35.01078 | -115.72341 | 27804 ft | 353 kts | 231° |
| 2026-05-03 22:59 | 34.99378 | -115.74506 | 27803 ft | 353 kts | 231° |
| 2026-05-03 23:00 | 34.97681 | -115.76668 | 27792 ft | 353 kts | 231° |
| 2026-05-03 23:00 | 34.95981 | -115.78833 | 27790 ft | 353 kts | 231° |
| 2026-05-03 23:00 | 34.94282 | -115.80998 | 27790 ft | 353 kts | 231° |
| 2026-05-03 23:00 | 34.92585 | -115.83160 | 27788 ft | 353 kts | 231° |
| 2026-05-03 23:01 | 34.90888 | -115.85322 | 27791 ft | 353 kts | 231° |
| 2026-05-03 23:01 | 34.89190 | -115.87485 | 27789 ft | 353 kts | 231° |
| 2026-05-03 23:01 | 34.87488 | -115.89644 | 27775 ft | 353 kts | 231° |
| 2026-05-03 23:01 | 34.85788 | -115.91799 | 27777 ft | 353 kts | 231° |
| 2026-05-03 23:02 | 34.84089 | -115.93953 | 27771 ft | 353 kts | 231° |
| 2026-05-03 23:02 | 34.82412 | -115.96079 | 27770 ft | 353 kts | 231° |
| 2026-05-03 23:02 | 34.80712 | -115.98231 | 27772 ft | 353 kts | 231° |
| 2026-05-03 23:02 | 34.79010 | -116.00385 | 27755 ft | 353 kts | 231° |
| 2026-05-03 23:03 | 34.77310 | -116.02538 | 27749 ft | 353 kts | 231° |
| 2026-05-03 23:03 | 34.75613 | -116.04693 | 27749 ft | 353 kts | 231° |
| 2026-05-03 23:03 | 34.73916 | -116.06854 | 27751 ft | 353 kts | 231° |
| 2026-05-03 23:03 | 34.72219 | -116.09019 | 27753 ft | 353 kts | 231° |
| 2026-05-03 23:04 | 34.70519 | -116.11185 | 27758 ft | 353 kts | 231° |
| 2026-05-03 23:04 | 34.68820 | -116.13350 | 27759 ft | 354 kts | 231° |
| 2026-05-03 23:04 | 34.67121 | -116.15513 | 27764 ft | 354 kts | 231° |
| 2026-05-03 23:04 | 34.65424 | -116.17673 | 27762 ft | 354 kts | 231° |